sensor_id;sensor_type;location;lat;lon;timestamp;temperature;humidity
981;DHT22;479;53.514;9.994;2023-04-01T00:01:29;10.50;99.90
981;DHT22;479;53.514;9.994;2023-04-01T00:03:56;10.60;99.90
981;DHT22;479;53.514;9.994;2023-04-01T00:06:23;10.60;99.90
981;DHT22;479;53.514;9.994;2023-04-01T00:08:50;10.60;99.90
981;DHT22;479;53.514;9.994;2023-04-01T00:11:18;10.60;99.90
981;DHT22;479;53.514;9.994;2023-04-01T00:13:45;10.50;99.90
981;DHT22;479;53.514;9.994;2023-04-01T00:16:14;10.50;99.90
981;DHT22;479;53.514;9.994;2023-04-01T00:18:41;10.50;99.90
981;DHT22;479;53.514;9.994;2023-04-01T00:21:08;10.50;99.90
981;DHT22;479;53.514;9.994;2023-04-01T00:23:35;10.50;99.90
981;DHT22;479;53.514;9.994;2023-04-01T00:26:02;10.40;99.90
981;DHT22;479;53.514;9.994;2023-04-01T00:28:30;10.50;99.90
981;DHT22;479;53.514;9.994;2023-04-01T00:30:57;10.40;99.90
981;DHT22;479;53.514;9.994;2023-04-01T00:33:25;10.40;99.90
981;DHT22;479;53.514;9.994;2023-04-01T00:35:53;10.40;99.90
981;DHT22;479;53.514;9.994;2023-04-01T00:38:20;10.30;99.90
981;DHT22;479;53.514;9.994;2023-04-01T00:40:47;10.30;99.90
981;DHT22;479;53.514;9.994;2023-04-01T00:43:16;10.30;99.90
981;DHT22;479;53.514;9.994;2023-04-01T00:45:45;10.30;99.90
981;DHT22;479;53.514;9.994;2023-04-01T00:48:14;10.30;99.90
981;DHT22;479;53.514;9.994;2023-04-01T00:50:46;10.20;99.90
981;DHT22;479;53.514;9.994;2023-04-01T00:53:14;10.20;99.90
981;DHT22;479;53.514;9.994;2023-04-01T00:55:46;10.20;99.90
981;DHT22;479;53.514;9.994;2023-04-01T00:58:17;10.20;99.90
981;DHT22;479;53.514;9.994;2023-04-01T01:00:47;10.20;99.90
981;DHT22;479;53.514;9.994;2023-04-01T01:03:15;10.20;99.90
981;DHT22;479;53.514;9.994;2023-04-01T01:05:56;10.20;99.90
981;DHT22;479;53.514;9.994;2023-04-01T01:08:31;10.10;99.90
981;DHT22;479;53.514;9.994;2023-04-01T01:11:05;10.20;99.90
981;DHT22;479;53.514;9.994;2023-04-01T01:13:41;10.10;99.90
981;DHT22;479;53.514;9.994;2023-04-01T01:16:15;10.10;99.90
981;DHT22;479;53.514;9.994;2023-04-01T01:18:48;10.20;99.90
981;DHT22;479;53.514;9.994;2023-04-01T01:21:43;10.10;99.90
981;DHT22;479;53.514;9.994;2023-04-01T01:24:30;10.10;99.90
981;DHT22;479;53.514;9.994;2023-04-01T01:27:06;10.10;99.90
981;DHT22;479;53.514;9.994;2023-04-01T01:33:18;10.10;99.90
981;DHT22;479;53.514;9.994;2023-04-01T01:35:49;10.10;99.90
981;DHT22;479;53.514;9.994;2023-04-01T01:38:22;10.10;99.90
981;DHT22;479;53.514;9.994;2023-04-01T01:41:00;10.10;99.90
981;DHT22;479;53.514;9.994;2023-04-01T01:43:31;10.10;99.90
981;DHT22;479;53.514;9.994;2023-04-01T01:46:02;10.10;99.90
981;DHT22;479;53.514;9.994;2023-04-01T01:48:32;10.10;99.90
981;DHT22;479;53.514;9.994;2023-04-01T01:51:03;10.10;99.90
981;DHT22;479;53.514;9.994;2023-04-01T01:53:30;10.10;99.90
981;DHT22;479;53.514;9.994;2023-04-01T01:55:57;10.10;99.90
981;DHT22;479;53.514;9.994;2023-04-01T01:58:27;10.10;99.90
981;DHT22;479;53.514;9.994;2023-04-01T02:00:57;10.10;99.90
981;DHT22;479;53.514;9.994;2023-04-01T02:03:27;10.10;99.90
981;DHT22;479;53.514;9.994;2023-04-01T02:05:57;10.00;99.90
981;DHT22;479;53.514;9.994;2023-04-01T02:08:30;10.10;99.90
981;DHT22;479;53.514;9.994;2023-04-01T02:11:04;10.10;99.90
981;DHT22;479;53.514;9.994;2023-04-01T02:13:40;10.10;99.90
981;DHT22;479;53.514;9.994;2023-04-01T02:16:13;10.10;99.90
981;DHT22;479;53.514;9.994;2023-04-01T02:18:42;10.10;99.90
981;DHT22;479;53.514;9.994;2023-04-01T02:21:11;10.10;99.90
981;DHT22;479;53.514;9.994;2023-04-01T02:23:40;10.10;99.90
981;DHT22;479;53.514;9.994;2023-04-01T02:26:08;10.10;99.90
981;DHT22;479;53.514;9.994;2023-04-01T02:28:38;10.10;99.90
981;DHT22;479;53.514;9.994;2023-04-01T02:31:06;10.10;99.90
981;DHT22;479;53.514;9.994;2023-04-01T02:33:34;10.10;99.90
981;DHT22;479;53.514;9.994;2023-04-01T02:36:02;10.10;99.90
981;DHT22;479;53.514;9.994;2023-04-01T02:38:29;10.10;99.90
981;DHT22;479;53.514;9.994;2023-04-01T02:40:59;10.00;99.90
981;DHT22;479;53.514;9.994;2023-04-01T02:43:27;10.00;99.90
981;DHT22;479;53.514;9.994;2023-04-01T02:45:55;10.00;99.90
981;DHT22;479;53.514;9.994;2023-04-01T02:48:22;10.00;99.90
981;DHT22;479;53.514;9.994;2023-04-01T02:50:50;10.00;99.90
981;DHT22;479;53.514;9.994;2023-04-01T02:53:17;10.00;99.90
981;DHT22;479;53.514;9.994;2023-04-01T02:55:44;10.00;99.90
981;DHT22;479;53.514;9.994;2023-04-01T02:58:12;10.00;99.90
981;DHT22;479;53.514;9.994;2023-04-01T03:00:39;10.00;99.90
981;DHT22;479;53.514;9.994;2023-04-01T03:03:06;10.00;99.90
981;DHT22;479;53.514;9.994;2023-04-01T03:05:33;10.00;99.90
981;DHT22;479;53.514;9.994;2023-04-01T03:08:00;10.10;99.90
981;DHT22;479;53.514;9.994;2023-04-01T03:10:28;10.10;99.90
981;DHT22;479;53.514;9.994;2023-04-01T03:12:55;10.10;99.90
981;DHT22;479;53.514;9.994;2023-04-01T03:15:23;10.00;99.90
981;DHT22;479;53.514;9.994;2023-04-01T03:17:50;10.00;99.90
981;DHT22;479;53.514;9.994;2023-04-01T03:20:17;10.00;99.90
981;DHT22;479;53.514;9.994;2023-04-01T03:22:45;10.00;99.90
981;DHT22;479;53.514;9.994;2023-04-01T03:25:12;10.00;99.90
981;DHT22;479;53.514;9.994;2023-04-01T03:27:39;10.00;99.90
981;DHT22;479;53.514;9.994;2023-04-01T03:30:08;10.00;99.90
981;DHT22;479;53.514;9.994;2023-04-01T03:32:45;10.00;99.90
981;DHT22;479;53.514;9.994;2023-04-01T03:35:12;10.00;99.90
981;DHT22;479;53.514;9.994;2023-04-01T03:37:40;10.00;99.90
981;DHT22;479;53.514;9.994;2023-04-01T03:40:08;10.00;99.90
981;DHT22;479;53.514;9.994;2023-04-01T03:42:35;10.00;99.90
981;DHT22;479;53.514;9.994;2023-04-01T03:45:02;10.00;99.90
981;DHT22;479;53.514;9.994;2023-04-01T03:47:29;10.00;99.90
981;DHT22;479;53.514;9.994;2023-04-01T03:49:58;10.00;99.90
981;DHT22;479;53.514;9.994;2023-04-01T03:52:25;10.00;99.90
981;DHT22;479;53.514;9.994;2023-04-01T03:54:53;10.10;99.90
981;DHT22;479;53.514;9.994;2023-04-01T03:57:20;10.00;99.90
981;DHT22;479;53.514;9.994;2023-04-01T03:59:47;10.10;99.90
981;DHT22;479;53.514;9.994;2023-04-01T04:02:14;10.10;99.90
981;DHT22;479;53.514;9.994;2023-04-01T04:04:41;10.10;99.90
981;DHT22;479;53.514;9.994;2023-04-01T04:07:10;10.10;99.90
981;DHT22;479;53.514;9.994;2023-04-01T04:09:56;10.10;99.90
981;DHT22;479;53.514;9.994;2023-04-01T04:12:23;10.00;99.90
981;DHT22;479;53.514;9.994;2023-04-01T04:14:51;10.00;99.90
981;DHT22;479;53.514;9.994;2023-04-01T04:17:18;10.00;99.90
981;DHT22;479;53.514;9.994;2023-04-01T04:19:45;10.00;99.90
981;DHT22;479;53.514;9.994;2023-04-01T04:22:13;9.90;99.90
981;DHT22;479;53.514;9.994;2023-04-01T04:24:40;10.00;99.90
981;DHT22;479;53.514;9.994;2023-04-01T04:27:11;10.00;99.90
981;DHT22;479;53.514;9.994;2023-04-01T04:29:48;10.00;99.90
981;DHT22;479;53.514;9.994;2023-04-01T04:32:15;10.10;99.90
981;DHT22;479;53.514;9.994;2023-04-01T04:34:42;10.00;99.90
981;DHT22;479;53.514;9.994;2023-04-01T04:37:09;10.10;99.90
981;DHT22;479;53.514;9.994;2023-04-01T04:39:38;10.10;99.90
981;DHT22;479;53.514;9.994;2023-04-01T04:42:05;10.10;99.90
981;DHT22;479;53.514;9.994;2023-04-01T04:44:32;10.10;99.90
981;DHT22;479;53.514;9.994;2023-04-01T04:47:00;10.10;99.90
981;DHT22;479;53.514;9.994;2023-04-01T04:49:27;10.00;99.90
981;DHT22;479;53.514;9.994;2023-04-01T04:51:54;10.00;99.90
981;DHT22;479;53.514;9.994;2023-04-01T04:54:24;10.00;99.90
981;DHT22;479;53.514;9.994;2023-04-01T04:56:58;10.00;99.90
981;DHT22;479;53.514;9.994;2023-04-01T04:59:27;10.00;99.90
981;DHT22;479;53.514;9.994;2023-04-01T05:02:13;10.00;99.90
981;DHT22;479;53.514;9.994;2023-04-01T05:04:40;10.00;99.90
981;DHT22;479;53.514;9.994;2023-04-01T05:07:10;10.00;99.90
981;DHT22;479;53.514;9.994;2023-04-01T05:09:38;10.00;99.90
981;DHT22;479;53.514;9.994;2023-04-01T05:12:06;10.00;99.90
981;DHT22;479;53.514;9.994;2023-04-01T05:14:54;10.00;99.90
981;DHT22;479;53.514;9.994;2023-04-01T05:17:21;10.00;99.90
981;DHT22;479;53.514;9.994;2023-04-01T05:19:48;10.00;99.90
981;DHT22;479;53.514;9.994;2023-04-01T05:22:15;10.00;99.90
981;DHT22;479;53.514;9.994;2023-04-01T05:24:43;10.00;99.90
981;DHT22;479;53.514;9.994;2023-04-01T05:27:12;10.00;99.90
981;DHT22;479;53.514;9.994;2023-04-01T05:29:40;10.00;99.90
981;DHT22;479;53.514;9.994;2023-04-01T05:32:13;10.00;99.90
981;DHT22;479;53.514;9.994;2023-04-01T05:34:40;10.10;99.90
981;DHT22;479;53.514;9.994;2023-04-01T05:37:08;10.00;99.90
981;DHT22;479;53.514;9.994;2023-04-01T05:39:36;10.00;99.90
981;DHT22;479;53.514;9.994;2023-04-01T05:42:05;10.00;99.90
981;DHT22;479;53.514;9.994;2023-04-01T05:44:34;10.00;99.90
981;DHT22;479;53.514;9.994;2023-04-01T05:47:02;10.00;99.90
981;DHT22;479;53.514;9.994;2023-04-01T05:49:30;10.00;99.90
981;DHT22;479;53.514;9.994;2023-04-01T05:51:57;10.00;99.90
981;DHT22;479;53.514;9.994;2023-04-01T05:54:24;10.00;99.90
981;DHT22;479;53.514;9.994;2023-04-01T05:56:51;10.10;99.90
981;DHT22;479;53.514;9.994;2023-04-01T05:59:19;10.00;99.90
981;DHT22;479;53.514;9.994;2023-04-01T06:01:47;9.90;99.90
981;DHT22;479;53.514;9.994;2023-04-01T06:04:17;9.50;99.90
981;DHT22;479;53.514;9.994;2023-04-01T06:06:45;9.20;99.90
981;DHT22;479;53.514;9.994;2023-04-01T06:09:15;9.10;99.90
981;DHT22;479;53.514;9.994;2023-04-01T06:12:02;9.00;99.90
981;DHT22;479;53.514;9.994;2023-04-01T06:14:44;8.90;99.90
981;DHT22;479;53.514;9.994;2023-04-01T06:17:26;8.80;99.90
981;DHT22;479;53.514;9.994;2023-04-01T06:20:03;8.80;99.90
981;DHT22;479;53.514;9.994;2023-04-01T06:22:52;8.70;99.90
981;DHT22;479;53.514;9.994;2023-04-01T06:25:35;8.60;99.90
981;DHT22;479;53.514;9.994;2023-04-01T06:31:07;8.50;99.90
981;DHT22;479;53.514;9.994;2023-04-01T06:33:55;8.40;99.90
981;DHT22;479;53.514;9.994;2023-04-01T06:36:42;8.40;99.90
981;DHT22;479;53.514;9.994;2023-04-01T06:39:22;8.20;99.90
981;DHT22;479;53.514;9.994;2023-04-01T06:44:54;8.20;99.90
981;DHT22;479;53.514;9.994;2023-04-01T06:47:53;8.20;99.90
981;DHT22;479;53.514;9.994;2023-04-01T06:50:50;8.10;99.90
981;DHT22;479;53.514;9.994;2023-04-01T06:53:42;8.10;99.90
981;DHT22;479;53.514;9.994;2023-04-01T06:56:32;8.00;99.90
981;DHT22;479;53.514;9.994;2023-04-01T06:59:11;7.80;99.90
981;DHT22;479;53.514;9.994;2023-04-01T07:01:41;7.80;99.90
981;DHT22;479;53.514;9.994;2023-04-01T07:04:13;7.80;99.90
981;DHT22;479;53.514;9.994;2023-04-01T07:06:45;7.70;99.90
981;DHT22;479;53.514;9.994;2023-04-01T07:09:18;7.70;99.90
981;DHT22;479;53.514;9.994;2023-04-01T07:12:11;7.70;99.90
981;DHT22;479;53.514;9.994;2023-04-01T07:15:04;7.70;99.90
981;DHT22;479;53.514;9.994;2023-04-01T07:17:34;7.60;99.90
981;DHT22;479;53.514;9.994;2023-04-01T07:20:10;7.60;99.90
981;DHT22;479;53.514;9.994;2023-04-01T07:22:41;7.50;99.90
981;DHT22;479;53.514;9.994;2023-04-01T07:25:28;7.50;99.90
981;DHT22;479;53.514;9.994;2023-04-01T07:28:16;7.50;99.90
981;DHT22;479;53.514;9.994;2023-04-01T07:30:52;7.50;99.90
981;DHT22;479;53.514;9.994;2023-04-01T07:33:27;7.40;99.90
981;DHT22;479;53.514;9.994;2023-04-01T07:36:03;7.40;99.90
981;DHT22;479;53.514;9.994;2023-04-01T07:38:40;7.30;99.90
981;DHT22;479;53.514;9.994;2023-04-01T07:41:15;7.30;99.90
981;DHT22;479;53.514;9.994;2023-04-01T07:43:56;7.30;99.90
981;DHT22;479;53.514;9.994;2023-04-01T07:46:45;7.40;99.90
981;DHT22;479;53.514;9.994;2023-04-01T07:49:15;7.40;99.90
981;DHT22;479;53.514;9.994;2023-04-01T07:51:49;7.40;99.90
981;DHT22;479;53.514;9.994;2023-04-01T07:54:24;7.30;99.90
981;DHT22;479;53.514;9.994;2023-04-01T07:56:59;7.20;99.90
981;DHT22;479;53.514;9.994;2023-04-01T07:59:49;7.20;99.90
981;DHT22;479;53.514;9.994;2023-04-01T08:02:34;7.20;99.90
981;DHT22;479;53.514;9.994;2023-04-01T08:05:14;7.20;99.90
981;DHT22;479;53.514;9.994;2023-04-01T08:07:53;7.30;99.90
981;DHT22;479;53.514;9.994;2023-04-01T08:10:49;7.30;99.90
981;DHT22;479;53.514;9.994;2023-04-01T08:13:40;7.20;99.90
981;DHT22;479;53.514;9.994;2023-04-01T08:16:52;7.10;99.90
981;DHT22;479;53.514;9.994;2023-04-01T08:19:48;7.00;99.90
981;DHT22;479;53.514;9.994;2023-04-01T08:22:22;6.90;99.90
981;DHT22;479;53.514;9.994;2023-04-01T08:24:54;7.00;99.90
981;DHT22;479;53.514;9.994;2023-04-01T08:27:28;7.00;99.90
981;DHT22;479;53.514;9.994;2023-04-01T08:30:04;7.00;99.90
981;DHT22;479;53.514;9.994;2023-04-01T08:32:37;7.10;99.90
981;DHT22;479;53.514;9.994;2023-04-01T08:35:14;7.10;99.90
981;DHT22;479;53.514;9.994;2023-04-01T08:37:45;7.20;99.90
981;DHT22;479;53.514;9.994;2023-04-01T08:40:43;7.20;99.90
981;DHT22;479;53.514;9.994;2023-04-01T08:43:22;7.20;99.90
981;DHT22;479;53.514;9.994;2023-04-01T08:46:06;7.10;99.90
981;DHT22;479;53.514;9.994;2023-04-01T08:48:48;7.10;99.90
981;DHT22;479;53.514;9.994;2023-04-01T08:51:51;7.20;99.90
981;DHT22;479;53.514;9.994;2023-04-01T08:57:42;7.10;99.90
981;DHT22;479;53.514;9.994;2023-04-01T09:00:53;7.20;99.90
981;DHT22;479;53.514;9.994;2023-04-01T09:03:50;7.20;99.90
981;DHT22;479;53.514;9.994;2023-04-01T09:06:33;7.10;99.90
981;DHT22;479;53.514;9.994;2023-04-01T09:09:39;7.10;99.90
981;DHT22;479;53.514;9.994;2023-04-01T09:15:34;7.10;99.90
981;DHT22;479;53.514;9.994;2023-04-01T09:21:24;7.00;99.90
981;DHT22;479;53.514;9.994;2023-04-01T09:27:03;7.00;99.90
981;DHT22;479;53.514;9.994;2023-04-01T09:29:46;7.00;99.90
981;DHT22;479;53.514;9.994;2023-04-01T09:32:37;6.90;99.90
981;DHT22;479;53.514;9.994;2023-04-01T09:35:25;7.00;99.90
981;DHT22;479;53.514;9.994;2023-04-01T09:38:11;7.00;99.90
981;DHT22;479;53.514;9.994;2023-04-01T09:40:51;7.00;99.90
981;DHT22;479;53.514;9.994;2023-04-01T09:43:44;7.00;99.90
981;DHT22;479;53.514;9.994;2023-04-01T09:46:24;7.00;99.90
981;DHT22;479;53.514;9.994;2023-04-01T09:49:07;7.00;99.90
981;DHT22;479;53.514;9.994;2023-04-01T09:51:51;7.00;99.90
981;DHT22;479;53.514;9.994;2023-04-01T09:54:31;6.90;99.90
981;DHT22;479;53.514;9.994;2023-04-01T10:00:28;7.00;99.90
981;DHT22;479;53.514;9.994;2023-04-01T10:03:27;7.00;99.90
981;DHT22;479;53.514;9.994;2023-04-01T10:09:30;7.10;99.90
981;DHT22;479;53.514;9.994;2023-04-01T10:18:32;7.00;99.90
981;DHT22;479;53.514;9.994;2023-04-01T10:24:31;6.90;99.90
981;DHT22;479;53.514;9.994;2023-04-01T10:27:22;6.90;99.90
981;DHT22;479;53.514;9.994;2023-04-01T10:30:19;6.90;99.90
981;DHT22;479;53.514;9.994;2023-04-01T10:33:19;6.90;99.90
981;DHT22;479;53.514;9.994;2023-04-01T10:36:35;6.90;99.90
981;DHT22;479;53.514;9.994;2023-04-01T10:39:29;6.90;99.90
981;DHT22;479;53.514;9.994;2023-04-01T10:46:04;7.00;99.90
981;DHT22;479;53.514;9.994;2023-04-01T10:52:11;7.20;99.90
981;DHT22;479;53.514;9.994;2023-04-01T10:55:26;7.20;99.90
981;DHT22;479;53.514;9.994;2023-04-01T10:58:44;7.20;99.90
981;DHT22;479;53.514;9.994;2023-04-01T11:02:00;7.20;99.90
981;DHT22;479;53.514;9.994;2023-04-01T11:18:03;7.30;99.90
981;DHT22;479;53.514;9.994;2023-04-01T11:23:45;7.00;99.90
981;DHT22;479;53.514;9.994;2023-04-01T11:26:30;7.10;99.90
981;DHT22;479;53.514;9.994;2023-04-01T11:29:40;7.20;99.90
981;DHT22;479;53.514;9.994;2023-04-01T11:32:31;7.10;99.90
981;DHT22;479;53.514;9.994;2023-04-01T11:35:26;7.20;99.90
981;DHT22;479;53.514;9.994;2023-04-01T11:38:07;7.20;99.90
981;DHT22;479;53.514;9.994;2023-04-01T11:40:47;7.20;99.90
981;DHT22;479;53.514;9.994;2023-04-01T11:43:40;7.40;99.90
981;DHT22;479;53.514;9.994;2023-04-01T11:46:36;7.50;99.90
981;DHT22;479;53.514;9.994;2023-04-01T11:49:29;7.50;99.90
981;DHT22;479;53.514;9.994;2023-04-01T11:52:25;7.30;99.90
981;DHT22;479;53.514;9.994;2023-04-01T11:55:10;7.30;99.90
981;DHT22;479;53.514;9.994;2023-04-01T11:57:47;7.30;99.90
981;DHT22;479;53.514;9.994;2023-04-01T12:00:25;7.30;99.90
981;DHT22;479;53.514;9.994;2023-04-01T12:05:58;7.20;99.90
981;DHT22;479;53.514;9.994;2023-04-01T12:08:40;7.20;99.90
981;DHT22;479;53.514;9.994;2023-04-01T12:11:16;7.20;99.90
981;DHT22;479;53.514;9.994;2023-04-01T12:13:49;7.20;99.90
981;DHT22;479;53.514;9.994;2023-04-01T12:16:28;7.20;99.90
981;DHT22;479;53.514;9.994;2023-04-01T12:19:02;7.30;99.90
981;DHT22;479;53.514;9.994;2023-04-01T12:21:35;7.20;99.90
981;DHT22;479;53.514;9.994;2023-04-01T12:24:20;7.10;99.90
981;DHT22;479;53.514;9.994;2023-04-01T12:27:10;7.10;99.90
981;DHT22;479;53.514;9.994;2023-04-01T12:29:54;7.10;99.90
981;DHT22;479;53.514;9.994;2023-04-01T12:32:32;7.00;99.90
981;DHT22;479;53.514;9.994;2023-04-01T12:35:17;7.10;99.90
981;DHT22;479;53.514;9.994;2023-04-01T12:37:54;7.10;99.90
981;DHT22;479;53.514;9.994;2023-04-01T12:40:45;7.10;99.90
981;DHT22;479;53.514;9.994;2023-04-01T12:43:34;7.10;99.90
981;DHT22;479;53.514;9.994;2023-04-01T12:46:10;7.00;99.90
981;DHT22;479;53.514;9.994;2023-04-01T12:48:52;7.00;99.90
981;DHT22;479;53.514;9.994;2023-04-01T12:51:45;7.00;99.90
981;DHT22;479;53.514;9.994;2023-04-01T12:57:23;7.00;99.90
981;DHT22;479;53.514;9.994;2023-04-01T13:00:12;6.90;99.90
981;DHT22;479;53.514;9.994;2023-04-01T13:02:49;6.90;99.90
981;DHT22;479;53.514;9.994;2023-04-01T13:05:41;7.00;99.90
981;DHT22;479;53.514;9.994;2023-04-01T13:08:24;7.00;99.90
981;DHT22;479;53.514;9.994;2023-04-01T13:11:06;7.00;99.90
981;DHT22;479;53.514;9.994;2023-04-01T13:16:49;7.00;99.90
981;DHT22;479;53.514;9.994;2023-04-01T13:19:23;7.00;99.90
981;DHT22;479;53.514;9.994;2023-04-01T13:21:58;6.90;99.90
981;DHT22;479;53.514;9.994;2023-04-01T13:24:40;6.90;99.90
981;DHT22;479;53.514;9.994;2023-04-01T13:27:16;6.90;99.90
981;DHT22;479;53.514;9.994;2023-04-01T13:29:51;6.80;99.90
981;DHT22;479;53.514;9.994;2023-04-01T13:32:28;6.80;99.90
981;DHT22;479;53.514;9.994;2023-04-01T13:35:08;6.80;99.90
981;DHT22;479;53.514;9.994;2023-04-01T13:37:52;6.80;99.90
981;DHT22;479;53.514;9.994;2023-04-01T13:40:49;6.80;99.90
981;DHT22;479;53.514;9.994;2023-04-01T13:43:22;6.90;99.90
981;DHT22;479;53.514;9.994;2023-04-01T13:46:12;6.80;99.90
981;DHT22;479;53.514;9.994;2023-04-01T13:49:07;6.70;99.90
981;DHT22;479;53.514;9.994;2023-04-01T13:52:00;6.70;99.90
981;DHT22;479;53.514;9.994;2023-04-01T13:54:53;6.80;99.90
981;DHT22;479;53.514;9.994;2023-04-01T13:57:39;7.00;99.90
981;DHT22;479;53.514;9.994;2023-04-01T14:00:22;6.90;99.90
981;DHT22;479;53.514;9.994;2023-04-01T14:03:04;6.70;99.90
981;DHT22;479;53.514;9.994;2023-04-01T14:05:52;6.70;99.90
981;DHT22;479;53.514;9.994;2023-04-01T14:08:29;6.60;99.90
981;DHT22;479;53.514;9.994;2023-04-01T14:11:10;6.50;99.90
981;DHT22;479;53.514;9.994;2023-04-01T14:13:47;6.50;99.90
981;DHT22;479;53.514;9.994;2023-04-01T14:19:26;6.60;99.90
981;DHT22;479;53.514;9.994;2023-04-01T14:22:05;6.70;99.90
981;DHT22;479;53.514;9.994;2023-04-01T14:24:50;6.70;99.90
981;DHT22;479;53.514;9.994;2023-04-01T14:27:35;6.60;99.90
981;DHT22;479;53.514;9.994;2023-04-01T14:33:04;6.70;99.90
981;DHT22;479;53.514;9.994;2023-04-01T14:35:44;6.60;99.90
981;DHT22;479;53.514;9.994;2023-04-01T14:38:35;6.60;99.90
981;DHT22;479;53.514;9.994;2023-04-01T14:41:20;6.50;99.90
981;DHT22;479;53.514;9.994;2023-04-01T14:49:55;6.50;99.90
981;DHT22;479;53.514;9.994;2023-04-01T14:52:32;6.50;99.90
981;DHT22;479;53.514;9.994;2023-04-01T14:55:00;6.50;99.90
981;DHT22;479;53.514;9.994;2023-04-01T14:57:30;6.50;99.90
981;DHT22;479;53.514;9.994;2023-04-01T15:00:01;6.30;99.90
981;DHT22;479;53.514;9.994;2023-04-01T15:02:38;6.30;99.90
981;DHT22;479;53.514;9.994;2023-04-01T15:05:18;6.30;99.90
981;DHT22;479;53.514;9.994;2023-04-01T15:08:03;6.30;99.90
981;DHT22;479;53.514;9.994;2023-04-01T15:14:00;6.20;99.90
981;DHT22;479;53.514;9.994;2023-04-01T15:16:32;6.20;99.90
981;DHT22;479;53.514;9.994;2023-04-01T15:19:12;6.20;99.90
981;DHT22;479;53.514;9.994;2023-04-01T15:24:43;6.00;99.90
981;DHT22;479;53.514;9.994;2023-04-01T15:27:23;6.00;99.90
981;DHT22;479;53.514;9.994;2023-04-01T15:30:21;5.90;99.90
981;DHT22;479;53.514;9.994;2023-04-01T15:33:01;5.80;99.90
981;DHT22;479;53.514;9.994;2023-04-01T15:35:39;5.70;99.90
981;DHT22;479;53.514;9.994;2023-04-01T15:38:19;5.70;99.90
981;DHT22;479;53.514;9.994;2023-04-01T15:40:54;5.80;99.90
981;DHT22;479;53.514;9.994;2023-04-01T15:43:36;5.80;99.90
981;DHT22;479;53.514;9.994;2023-04-01T15:49:10;5.70;99.90
981;DHT22;479;53.514;9.994;2023-04-01T15:55:14;5.70;99.90
981;DHT22;479;53.514;9.994;2023-04-01T15:57:56;5.60;99.90
981;DHT22;479;53.514;9.994;2023-04-01T16:00:42;5.60;99.90
981;DHT22;479;53.514;9.994;2023-04-01T16:03:20;5.60;99.90
981;DHT22;479;53.514;9.994;2023-04-01T16:06:00;5.50;99.90
981;DHT22;479;53.514;9.994;2023-04-01T16:08:48;5.40;99.90
981;DHT22;479;53.514;9.994;2023-04-01T16:11:23;5.40;99.90
981;DHT22;479;53.514;9.994;2023-04-01T16:14:07;5.40;99.90
981;DHT22;479;53.514;9.994;2023-04-01T16:17:02;5.40;99.90
981;DHT22;479;53.514;9.994;2023-04-01T16:19:46;5.40;99.90
981;DHT22;479;53.514;9.994;2023-04-01T16:22:21;5.30;99.90
981;DHT22;479;53.514;9.994;2023-04-01T16:24:54;5.30;99.90
981;DHT22;479;53.514;9.994;2023-04-01T16:27:29;5.20;99.90
981;DHT22;479;53.514;9.994;2023-04-01T16:30:01;5.20;99.90
981;DHT22;479;53.514;9.994;2023-04-01T16:32:36;5.20;99.90
981;DHT22;479;53.514;9.994;2023-04-01T16:35:23;5.20;99.90
981;DHT22;479;53.514;9.994;2023-04-01T16:37:55;5.30;99.90
981;DHT22;479;53.514;9.994;2023-04-01T16:40:37;5.20;99.90
981;DHT22;479;53.514;9.994;2023-04-01T16:43:13;5.20;99.90
981;DHT22;479;53.514;9.994;2023-04-01T16:45:46;5.10;99.90
981;DHT22;479;53.514;9.994;2023-04-01T16:48:21;5.10;99.90
981;DHT22;479;53.514;9.994;2023-04-01T16:50:55;5.10;99.90
981;DHT22;479;53.514;9.994;2023-04-01T16:53:35;5.10;99.90
981;DHT22;479;53.514;9.994;2023-04-01T16:56:08;5.10;99.90
981;DHT22;479;53.514;9.994;2023-04-01T16:58:41;5.00;99.90
981;DHT22;479;53.514;9.994;2023-04-01T17:01:13;4.90;99.90
981;DHT22;479;53.514;9.994;2023-04-01T17:03:44;4.90;99.90
981;DHT22;479;53.514;9.994;2023-04-01T17:06:27;4.90;99.90
981;DHT22;479;53.514;9.994;2023-04-01T17:09:14;4.90;99.90
981;DHT22;479;53.514;9.994;2023-04-01T17:11:47;4.80;99.90
981;DHT22;479;53.514;9.994;2023-04-01T17:14:22;4.80;99.90
981;DHT22;479;53.514;9.994;2023-04-01T17:17:15;4.80;99.90
981;DHT22;479;53.514;9.994;2023-04-01T17:20:10;4.80;99.90
981;DHT22;479;53.514;9.994;2023-04-01T17:22:48;4.70;99.90
981;DHT22;479;53.514;9.994;2023-04-01T17:25:29;4.80;99.90
981;DHT22;479;53.514;9.994;2023-04-01T17:28:05;4.80;99.90
981;DHT22;479;53.514;9.994;2023-04-01T17:30:39;4.80;99.90
981;DHT22;479;53.514;9.994;2023-04-01T17:33:29;4.80;99.90
981;DHT22;479;53.514;9.994;2023-04-01T17:36:11;4.80;99.90
981;DHT22;479;53.514;9.994;2023-04-01T17:38:57;4.80;99.90
981;DHT22;479;53.514;9.994;2023-04-01T17:41:36;4.80;99.90
981;DHT22;479;53.514;9.994;2023-04-01T17:44:17;4.80;99.90
981;DHT22;479;53.514;9.994;2023-04-01T17:47:07;4.80;99.90
981;DHT22;479;53.514;9.994;2023-04-01T17:49:43;4.80;99.90
981;DHT22;479;53.514;9.994;2023-04-01T17:52:17;4.80;99.90
981;DHT22;479;53.514;9.994;2023-04-01T17:54:55;4.90;99.90
981;DHT22;479;53.514;9.994;2023-04-01T17:57:34;4.90;99.90
981;DHT22;479;53.514;9.994;2023-04-01T18:00:18;4.90;99.90
981;DHT22;479;53.514;9.994;2023-04-01T18:02:51;4.90;99.90
981;DHT22;479;53.514;9.994;2023-04-01T18:05:38;4.90;99.90
981;DHT22;479;53.514;9.994;2023-04-01T18:08:19;4.90;99.90
981;DHT22;479;53.514;9.994;2023-04-01T18:10:57;4.90;99.90
981;DHT22;479;53.514;9.994;2023-04-01T18:13:47;4.90;99.90
981;DHT22;479;53.514;9.994;2023-04-01T18:16:28;4.90;99.90
981;DHT22;479;53.514;9.994;2023-04-01T18:19:02;4.90;99.90
981;DHT22;479;53.514;9.994;2023-04-01T18:21:40;4.90;99.90
981;DHT22;479;53.514;9.994;2023-04-01T18:24:16;4.90;99.90
981;DHT22;479;53.514;9.994;2023-04-01T18:26:49;4.90;99.90
981;DHT22;479;53.514;9.994;2023-04-01T18:29:27;4.90;99.90
981;DHT22;479;53.514;9.994;2023-04-01T18:32:08;4.90;99.90
981;DHT22;479;53.514;9.994;2023-04-01T18:34:49;4.80;99.90
981;DHT22;479;53.514;9.994;2023-04-01T18:37:22;4.90;99.90
981;DHT22;479;53.514;9.994;2023-04-01T18:39:53;4.90;99.90
981;DHT22;479;53.514;9.994;2023-04-01T18:42:30;4.90;99.90
981;DHT22;479;53.514;9.994;2023-04-01T18:45:08;4.80;99.90
981;DHT22;479;53.514;9.994;2023-04-01T18:47:42;4.80;99.90
981;DHT22;479;53.514;9.994;2023-04-01T18:50:18;4.70;99.90
981;DHT22;479;53.514;9.994;2023-04-01T18:52:53;4.70;99.90
981;DHT22;479;53.514;9.994;2023-04-01T18:55:30;4.60;99.90
981;DHT22;479;53.514;9.994;2023-04-01T18:58:11;4.60;99.90
981;DHT22;479;53.514;9.994;2023-04-01T19:00:42;4.50;99.90
981;DHT22;479;53.514;9.994;2023-04-01T19:03:16;4.50;99.90
981;DHT22;479;53.514;9.994;2023-04-01T19:05:49;4.50;99.90
981;DHT22;479;53.514;9.994;2023-04-01T19:08:26;4.50;99.90
981;DHT22;479;53.514;9.994;2023-04-01T19:11:01;4.60;99.90
981;DHT22;479;53.514;9.994;2023-04-01T19:13:35;4.60;99.90
981;DHT22;479;53.514;9.994;2023-04-01T19:16:12;4.60;99.90
981;DHT22;479;53.514;9.994;2023-04-01T19:18:52;4.50;99.90
981;DHT22;479;53.514;9.994;2023-04-01T19:21:26;4.50;99.90
981;DHT22;479;53.514;9.994;2023-04-01T19:24:18;4.50;99.90
981;DHT22;479;53.514;9.994;2023-04-01T19:26:49;4.50;99.90
981;DHT22;479;53.514;9.994;2023-04-01T19:29:30;4.50;99.90
981;DHT22;479;53.514;9.994;2023-04-01T19:32:07;4.50;99.90